Time;durP1;ratioP1;P1;durP2;ratioP2;P2;SDS_P1;SDS_P2;PMS_P1;PMS_P2;Temp;Humidity;BMP_temperature;BMP_pressure;BME280_temperature;BME280_humidity;BME280_pressure;Samples;Min_cycle;Max_cycle;Signal;HPM_P1;HPM_P2
2023/07/16 00:01:54;;;;;;;6.90;2.45;;;18.10;94.60;;;;;;5044418;28;20049;-42
2023/07/16 00:04:21;;;;;;;12.07;2.90;;;18.10;94.90;;;;;;5044252;28;20478;-41
2023/07/16 00:06:49;;;;;;;9.35;2.90;;;18.00;95.10;;;;;;5043563;28;20037;-42
2023/07/16 00:09:16;;;;;;;16.77;3.38;;;18.00;95.40;;;;;;5034932;28;20053;-41
2023/07/16 00:11:43;;;;;;;10.20;3.10;;;18.00;96.00;;;;;;5039675;28;20404;-42
2023/07/16 00:14:11;;;;;;;10.23;2.95;;;18.00;96.50;;;;;;5030388;28;20485;-42
2023/07/16 00:16:38;;;;;;;7.38;2.80;;;17.90;97.10;;;;;;5031623;28;20049;-42
2023/07/16 00:19:04;;;;;;;8.25;2.80;;;17.90;97.60;;;;;;5033386;28;20057;-42
2023/07/16 00:21:31;;;;;;;11.82;3.08;;;17.90;98.20;;;;;;5030468;28;20049;-42
2023/07/16 00:24:00;;;;;;;8.15;2.78;;;17.80;99.10;;;;;;5030686;28;20049;-42
2023/07/16 00:26:26;;;;;;;13.10;3.88;;;17.80;99.40;;;;;;5016247;28;20049;-42
2023/07/16 00:28:53;;;;;;;10.98;2.75;;;17.80;99.70;;;;;;5029415;28;20104;-42
2023/07/16 00:31:20;;;;;;;8.43;2.88;;;17.80;99.70;;;;;;5033909;28;20065;-42
2023/07/16 00:33:47;;;;;;;12.05;3.17;;;17.70;99.50;;;;;;5043993;28;20057;-42
2023/07/16 00:36:14;;;;;;;9.70;2.97;;;17.80;99.40;;;;;;5042970;28;20490;-42
2023/07/16 00:38:41;;;;;;;14.55;3.28;;;17.70;99.10;;;;;;5032180;28;20111;-42
2023/07/16 00:41:09;;;;;;;12.40;2.92;;;17.70;99.00;;;;;;5032268;28;20412;-42
2023/07/16 00:43:36;;;;;;;11.98;2.72;;;17.60;98.90;;;;;;5039947;28;20060;-42
2023/07/16 00:46:03;;;;;;;11.65;3.13;;;17.60;98.80;;;;;;5038124;28;20142;-42
2023/07/16 00:48:30;;;;;;;12.57;3.20;;;17.60;98.70;;;;;;5034346;28;20057;-42
2023/07/16 00:50:56;;;;;;;9.68;2.80;;;17.60;98.60;;;;;;5031072;28;20479;-42
2023/07/16 00:53:23;;;;;;;15.52;3.50;;;17.60;98.50;;;;;;5035373;28;20041;-42
2023/07/16 00:55:50;;;;;;;12.55;2.90;;;17.60;98.50;;;;;;5046908;28;20063;-42
2023/07/16 00:58:18;;;;;;;11.43;3.35;;;17.60;98.40;;;;;;5032102;28;20053;-41
2023/07/16 01:00:45;;;;;;;15.30;3.15;;;17.50;98.60;;;;;;5039047;28;20049;-42
2023/07/16 01:03:13;;;;;;;11.65;2.83;;;17.50;98.60;;;;;;5037244;28;20057;-42
2023/07/16 01:05:46;;;;;;;15.95;3.17;;;17.50;98.60;;;;;;5027570;28;20139;-42
2023/07/16 01:08:13;;;;;;;9.52;2.70;;;17.50;98.60;;;;;;5042977;28;20717;-41
2023/07/16 01:10:40;;;;;;;13.23;2.90;;;17.50;98.60;;;;;;5038160;28;20057;-42
2023/07/16 01:13:06;;;;;;;11.45;3.17;;;17.40;99.00;;;;;;5045399;28;20052;-42
2023/07/16 01:15:35;;;;;;;7.72;2.60;;;17.40;99.40;;;;;;5043818;28;20455;-42
2023/07/16 01:18:02;;;;;;;10.65;3.03;;;17.40;99.80;;;;;;5051526;28;20515;-42
2023/07/16 01:20:32;;;;;;;12.15;3.03;;;17.30;99.90;;;;;;5049690;28;20079;-42
2023/07/16 01:23:36;;;;;;;14.77;3.58;;;17.30;99.90;;;;;;5046765;28;20060;-41
2023/07/16 01:26:20;;;;;;;11.88;2.80;;;17.30;99.90;;;;;;5039523;28;20049;-42
2023/07/16 01:29:05;;;;;;;12.85;3.20;;;17.30;99.90;;;;;;5036618;28;20085;-42
2023/07/16 01:31:31;;;;;;;14.73;3.42;;;17.30;99.90;;;;;;5030311;28;20507;-42
2023/07/16 01:33:58;;;;;;;7.68;2.95;;;17.30;99.90;;;;;;5031111;28;20083;-41
2023/07/16 01:36:25;;;;;;;10.48;3.15;;;17.20;99.90;;;;;;5047538;28;20138;-43
2023/07/16 01:38:52;;;;;;;14.98;3.63;;;17.30;99.90;;;;;;5036501;28;20060;-42
2023/07/16 01:41:19;;;;;;;10.10;3.30;;;17.30;99.90;;;;;;5036149;28;20044;-42
2023/07/16 01:43:46;;;;;;;7.30;3.50;;;17.30;99.90;;;;;;5043720;28;20099;-42
2023/07/16 01:46:14;;;;;;;13.60;4.10;;;17.30;99.90;;;;;;5031356;28;20123;-42
2023/07/16 01:48:41;;;;;;;9.30;3.13;;;17.30;99.90;;;;;;5028966;28;20057;-42
2023/07/16 01:51:08;;;;;;;14.68;4.15;;;17.30;99.90;;;;;;5030509;28;20053;-41
2023/07/16 01:53:35;;;;;;;12.20;3.83;;;17.30;99.90;;;;;;5030349;28;20059;-42
2023/07/16 01:56:02;;;;;;;8.10;3.70;;;17.30;99.90;;;;;;5030183;28;20053;-42
2023/07/16 01:58:31;;;;;;;15.57;4.05;;;17.30;99.90;;;;;;5033329;28;20405;-42
2023/07/16 02:00:58;;;;;;;12.68;4.32;;;17.30;99.90;;;;;;5033037;28;20106;-42
2023/07/16 02:03:26;;;;;;;11.65;3.75;;;17.30;99.90;;;;;;5030453;28;20049;-42
2023/07/16 02:05:53;;;;;;;12.63;4.40;;;17.30;99.90;;;;;;5035119;28;20054;-42
2023/07/16 02:08:20;;;;;;;13.55;4.25;;;17.30;99.90;;;;;;5033078;28;20377;-42
2023/07/16 02:10:48;;;;;;;8.90;4.10;;;17.30;99.90;;;;;;5033671;28;20481;-42
2023/07/16 02:13:15;;;;;;;11.57;4.15;;;17.40;99.90;;;;;;5039823;28;20477;-42
2023/07/16 02:15:42;;;;;;;12.05;4.50;;;17.40;99.90;;;;;;5032318;28;20045;-42
2023/07/16 02:18:09;;;;;;;11.65;4.10;;;17.40;99.90;;;;;;5035044;28;20046;-42
2023/07/16 02:20:38;;;;;;;12.27;4.20;;;17.40;99.90;;;;;;5032676;28;20041;-42
2023/07/16 02:23:04;;;;;;;10.93;3.58;;;17.40;99.70;;;;;;5034536;28;20061;-42
2023/07/16 02:25:32;;;;;;;11.18;4.50;;;17.40;99.50;;;;;;5033435;28;20124;-42
2023/07/16 02:27:59;;;;;;;14.70;4.15;;;17.40;99.30;;;;;;5033390;28;20108;-42
2023/07/16 02:30:26;;;;;;;10.77;4.03;;;17.40;99.20;;;;;;5034621;28;20546;-42
2023/07/16 02:32:53;;;;;;;13.25;4.30;;;17.40;99.00;;;;;;5033154;28;20050;-41
2023/07/16 02:35:20;;;;;;;11.27;4.18;;;17.40;99.00;;;;;;5032195;28;20477;-42
2023/07/16 02:37:48;;;;;;;7.55;3.72;;;17.40;98.80;;;;;;5033490;28;20448;-41
2023/07/16 02:40:15;;;;;;;13.82;4.38;;;17.40;98.80;;;;;;5048397;28;20049;-42
2023/07/16 02:42:42;;;;;;;9.93;3.80;;;17.40;98.70;;;;;;5034935;28;20127;-42
2023/07/16 02:45:09;;;;;;;12.35;4.10;;;17.30;98.60;;;;;;5033508;28;20064;-42
2023/07/16 02:47:36;;;;;;;13.93;3.85;;;17.30;98.60;;;;;;5035626;28;20100;-42
2023/07/16 02:50:04;;;;;;;9.73;4.03;;;17.30;98.60;;;;;;5032648;28;20049;-43
2023/07/16 02:52:30;;;;;;;12.13;4.05;;;17.30;98.60;;;;;;5032778;28;20041;-42
2023/07/16 02:54:59;;;;;;;14.88;3.88;;;17.30;98.70;;;;;;5042763;28;20053;-42
2023/07/16 02:57:26;;;;;;;10.60;4.07;;;17.30;98.80;;;;;;5047569;28;20060;-42
2023/07/16 02:59:52;;;;;;;13.15;4.50;;;17.30;98.80;;;;;;5034210;28;20060;-42
2023/07/16 03:02:19;;;;;;;11.50;4.18;;;17.20;98.90;;;;;;5032841;28;20042;-41
2023/07/16 03:04:46;;;;;;;17.80;4.60;;;17.20;99.00;;;;;;5033248;28;20068;-42
2023/07/16 03:07:13;;;;;;;16.40;4.60;;;17.20;99.00;;;;;;5043957;28;20505;-42
2023/07/16 03:09:40;;;;;;;13.27;4.70;;;17.20;99.10;;;;;;5040394;28;20060;-41
2023/07/16 03:12:09;;;;;;;13.43;4.78;;;17.20;99.20;;;;;;5033358;28;20053;-42
2023/07/16 03:14:36;;;;;;;15.27;4.53;;;17.20;99.20;;;;;;5032113;28;20045;-42
2023/07/16 03:17:03;;;;;;;13.75;4.65;;;17.10;99.20;;;;;;5034127;28;20048;-43
2023/07/16 03:19:30;;;;;;;13.30;4.18;;;17.10;99.40;;;;;;5030515;28;20061;-42
2023/07/16 03:21:57;;;;;;;10.38;4.20;;;17.10;99.40;;;;;;5031187;28;20060;-43
2023/07/16 03:24:24;;;;;;;13.90;4.68;;;17.10;99.40;;;;;;5032450;28;20054;-42
2023/07/16 03:26:50;;;;;;;17.85;4.72;;;17.10;99.50;;;;;;5032120;28;20049;-43
2023/07/16 03:29:19;;;;;;;10.90;4.55;;;17.10;99.50;;;;;;5047613;28;20064;-43
2023/07/16 03:31:46;;;;;;;14.15;4.57;;;17.00;99.50;;;;;;5030440;28;20053;-42
2023/07/16 03:34:12;;;;;;;14.07;5.63;;;17.00;99.50;;;;;;5031459;28;20054;-42
2023/07/16 03:36:39;;;;;;;13.57;4.75;;;17.00;99.60;;;;;;5032396;28;20068;-42
2023/07/16 03:39:06;;;;;;;14.43;5.07;;;17.00;99.70;;;;;;5031230;28;20082;-42
2023/07/16 03:41:33;;;;;;;11.48;4.82;;;17.00;99.70;;;;;;5032844;28;20107;-43
2023/07/16 03:44:00;;;;;;;15.70;4.53;;;17.00;99.70;;;;;;5031352;28;20516;-42
2023/07/16 03:46:28;;;;;;;17.45;5.30;;;17.00;99.80;;;;;;5035703;28;20079;-42
2023/07/16 03:48:55;;;;;;;18.30;5.50;;;17.00;99.80;;;;;;5048366;28;20053;-43
2023/07/16 03:51:22;;;;;;;12.35;5.07;;;17.00;99.80;;;;;;5046398;28;20556;-43
2023/07/16 03:53:49;;;;;;;15.52;5.10;;;17.00;99.90;;;;;;5033493;28;20510;-42
2023/07/16 03:56:15;;;;;;;14.18;5.07;;;16.90;99.90;;;;;;5031799;28;20412;-41
2023/07/16 03:58:43;;;;;;;13.63;5.13;;;16.90;99.90;;;;;;5039468;28;20569;-42
2023/07/16 04:01:10;;;;;;;12.20;5.00;;;16.90;99.90;;;;;;5045615;28;20454;-41
2023/07/16 04:03:38;;;;;;;15.30;5.30;;;16.90;99.90;;;;;;5049189;28;20082;-41
2023/07/16 04:06:05;;;;;;;13.68;5.18;;;16.90;99.90;;;;;;5033723;28;20060;-42
2023/07/16 04:08:32;;;;;;;14.57;5.38;;;17.00;99.90;;;;;;5033667;28;20469;-42
2023/07/16 04:10:59;;;;;;;15.20;5.38;;;16.90;99.90;;;;;;5040759;28;20057;-42
2023/07/16 04:13:26;;;;;;;16.25;5.57;;;16.90;99.90;;;;;;5030284;28;20057;-42
2023/07/16 04:15:54;;;;;;;16.67;5.45;;;16.90;99.90;;;;;;5032776;28;20111;-42
2023/07/16 04:18:22;;;;;;;12.15;5.15;;;16.90;99.90;;;;;;5032709;28;20507;-41
2023/07/16 04:20:50;;;;;;;11.00;5.00;;;16.90;99.90;;;;;;5029309;28;20405;-42
2023/07/16 04:23:17;;;;;;;17.40;5.30;;;16.90;99.90;;;;;;5030306;28;20477;-42
2023/07/16 04:25:44;;;;;;;13.65;4.93;;;16.90;99.90;;;;;;5033377;28;20103;-42
2023/07/16 04:28:11;;;;;;;13.93;5.78;;;16.90;99.90;;;;;;5031706;28;20046;-41
2023/07/16 04:30:38;;;;;;;14.00;4.90;;;16.90;99.90;;;;;;5031752;28;20057;-42
2023/07/16 04:33:05;;;;;;;15.82;6.10;;;16.90;99.90;;;;;;5030935;28;20050;-42
2023/07/16 04:35:33;;;;;;;17.05;5.20;;;16.90;99.90;;;;;;5030777;28;20058;-42
2023/07/16 04:38:01;;;;;;;20.63;5.07;;;16.90;99.90;;;;;;5031629;28;20501;-42
2023/07/16 04:40:29;;;;;;;12.70;4.82;;;16.90;99.90;;;;;;5030532;28;20539;-42
2023/07/16 04:42:56;;;;;;;11.18;4.68;;;16.90;99.90;;;;;;5032246;28;20052;-42
2023/07/16 04:45:23;;;;;;;13.55;4.88;;;16.90;99.90;;;;;;5046078;28;20106;-42
2023/07/16 04:47:50;;;;;;;18.85;6.00;;;17.00;99.90;;;;;;5039081;28;20059;-42
2023/07/16 04:50:17;;;;;;;15.10;5.00;;;16.90;99.90;;;;;;5044872;28;20042;-42
2023/07/16 04:52:43;;;;;;;14.18;5.03;;;16.90;99.90;;;;;;5045975;28;20111;-42
2023/07/16 04:55:12;;;;;;;19.65;5.95;;;16.90;99.90;;;;;;5031207;28;20049;-42
2023/07/16 04:57:39;;;;;;;18.15;5.70;;;16.90;99.90;;;;;;5032076;28;20048;-42
2023/07/16 05:00:08;;;;;;;14.32;5.00;;;16.90;99.90;;;;;;5034836;28;20052;-42
2023/07/16 05:02:34;;;;;;;12.15;4.82;;;16.90;99.90;;;;;;5030274;28;20140;-42
2023/07/16 05:05:01;;;;;;;13.23;5.03;;;17.00;99.90;;;;;;5031715;28;20057;-42
2023/07/16 05:07:28;;;;;;;12.40;4.80;;;17.00;99.90;;;;;;5035665;28;20485;-42
2023/07/16 05:09:55;;;;;;;12.77;4.57;;;17.00;99.90;;;;;;5039915;28;20392;-42
2023/07/16 05:12:23;;;;;;;14.10;4.80;;;17.00;99.90;;;;;;5030108;28;20053;-42
2023/07/16 05:14:50;;;;;;;18.02;4.95;;;17.10;99.90;;;;;;5034160;28;20053;-42
2023/07/16 05:17:17;;;;;;;14.57;4.97;;;17.10;99.90;;;;;;5031249;28;20116;-42
2023/07/16 05:19:44;;;;;;;17.48;4.90;;;17.10;99.90;;;;;;5034210;28;20045;-42
2023/07/16 05:22:11;;;;;;;13.52;4.70;;;17.20;99.90;;;;;;5028836;28;20050;-42
2023/07/16 05:24:38;;;;;;;10.52;4.20;;;17.20;99.90;;;;;;5048123;28;20497;-42
2023/07/16 05:27:05;;;;;;;13.73;4.28;;;17.30;99.90;;;;;;5031705;28;20053;-42
2023/07/16 05:29:34;;;;;;;15.20;4.53;;;17.30;99.90;;;;;;5030968;28;20073;-41
2023/07/16 05:32:00;;;;;;;12.48;4.10;;;17.30;99.90;;;;;;5030044;28;20057;-42
2023/07/16 05:34:27;;;;;;;12.85;4.03;;;17.40;99.90;;;;;;5033865;28;20457;-42
2023/07/16 05:36:54;;;;;;;12.75;4.15;;;17.50;99.90;;;;;;5037789;28;20052;-42
2023/07/16 05:39:21;;;;;;;14.00;4.80;;;17.60;99.90;;;;;;5034508;28;20128;-42
2023/07/16 05:41:48;;;;;;;11.60;4.35;;;17.60;99.90;;;;;;5033123;28;20191;-42
2023/07/16 05:44:15;;;;;;;18.08;4.97;;;17.70;99.90;;;;;;5034458;28;20054;-42
2023/07/16 05:46:43;;;;;;;13.23;5.00;;;17.80;99.90;;;;;;5033956;28;20103;-43
2023/07/16 05:49:10;;;;;;;15.90;4.53;;;17.80;99.90;;;;;;5035333;28;20059;-42
2023/07/16 05:51:37;;;;;;;11.52;4.22;;;17.90;99.90;;;;;;5044964;28;20454;-43
2023/07/16 05:54:04;;;;;;;12.88;4.70;;;18.00;99.90;;;;;;5039473;28;20045;-43
2023/07/16 05:56:31;;;;;;;13.57;4.50;;;18.00;99.90;;;;;;5035705;28;20056;-43
2023/07/16 05:58:58;;;;;;;14.13;5.18;;;18.10;99.90;;;;;;5032802;28;20133;-43
2023/07/16 06:01:24;;;;;;;16.17;4.70;;;18.10;99.90;;;;;;5040562;28;20045;-42
2023/07/16 06:03:53;;;;;;;13.05;4.47;;;18.20;99.90;;;;;;5047859;28;20076;-43
2023/07/16 06:06:20;;;;;;;12.73;4.80;;;18.30;99.90;;;;;;5038197;28;20057;-43
2023/07/16 06:08:48;;;;;;;15.35;4.88;;;18.40;99.90;;;;;;5035257;28;20485;-41
2023/07/16 06:11:14;;;;;;;16.13;5.10;;;18.50;99.90;;;;;;5034504;28;20125;-42
2023/07/16 06:13:41;;;;;;;13.95;4.57;;;18.60;99.90;;;;;;5033297;28;20107;-43
2023/07/16 06:16:08;;;;;;;13.13;5.10;;;18.70;99.90;;;;;;5036006;28;20057;-42
2023/07/16 06:18:35;;;;;;;14.75;5.18;;;18.70;99.90;;;;;;5033847;28;20136;-43
2023/07/16 06:21:03;;;;;;;14.55;4.38;;;18.80;99.90;;;;;;5038936;28;20550;-42
2023/07/16 06:23:30;;;;;;;17.73;4.72;;;18.80;99.70;;;;;;5046706;28;20118;-42
2023/07/16 06:25:57;;;;;;;13.77;4.85;;;18.90;99.60;;;;;;5033891;28;20057;-42
2023/07/16 06:28:24;;;;;;;12.13;5.50;;;19.00;99.30;;;;;;5038069;28;20050;-42
2023/07/16 06:30:52;;;;;;;15.43;4.95;;;19.00;99.00;;;;;;5034028;28;20057;-43
2023/07/16 06:33:19;;;;;;;10.18;5.00;;;19.10;98.90;;;;;;5043905;28;20061;-43
2023/07/16 06:35:46;;;;;;;13.82;5.40;;;19.20;98.60;;;;;;5039066;28;20050;-42
2023/07/16 06:38:15;;;;;;;11.80;5.25;;;19.20;98.40;;;;;;5031006;28;20041;-42
2023/07/16 06:40:47;;;;;;;16.23;5.45;;;19.30;98.30;;;;;;5031969;28;20049;-42
2023/07/16 06:43:14;;;;;;;11.13;4.70;;;19.30;98.30;;;;;;5027054;28;20452;-42
2023/07/16 06:45:40;;;;;;;12.50;5.18;;;19.40;98.20;;;;;;5029250;28;20057;-42
2023/07/16 06:48:07;;;;;;;15.45;5.88;;;19.50;97.90;;;;;;5032882;28;20057;-42
2023/07/16 06:50:34;;;;;;;19.83;5.65;;;19.50;97.80;;;;;;5039086;28;20111;-42
2023/07/16 06:53:01;;;;;;;14.48;5.20;;;19.70;97.80;;;;;;5033998;28;20111;-42
2023/07/16 06:55:29;;;;;;;11.60;5.00;;;19.80;97.60;;;;;;5032289;28;20049;-42
2023/07/16 06:57:56;;;;;;;13.30;5.50;;;19.80;97.40;;;;;;5030635;28;20123;-42
2023/07/16 07:00:23;;;;;;;13.05;5.20;;;19.80;97.20;;;;;;5030798;28;20423;-42
2023/07/16 07:02:50;;;;;;;12.85;5.15;;;19.80;97.10;;;;;;5034776;28;20099;-42
2023/07/16 07:05:17;;;;;;;13.10;5.32;;;19.80;97.00;;;;;;5030570;28;20104;-42
2023/07/16 07:07:44;;;;;;;13.27;4.78;;;19.90;96.70;;;;;;5028783;28;20054;-42
2023/07/16 07:10:12;;;;;;;14.20;5.10;;;20.00;96.70;;;;;;5028458;28;20152;-42
2023/07/16 07:12:40;;;;;;;12.70;5.03;;;20.10;96.40;;;;;;5034134;28;20038;-42
2023/07/16 07:15:08;;;;;;;13.93;5.10;;;20.20;96.40;;;;;;5030699;28;20061;-42
2023/07/16 07:17:35;;;;;;;11.32;5.28;;;20.30;96.20;;;;;;5030824;28;20049;-43
2023/07/16 07:20:03;;;;;;;9.65;4.93;;;20.50;96.10;;;;;;5032890;28;20049;-42
2023/07/16 07:22:30;;;;;;;14.57;5.25;;;20.70;95.90;;;;;;5036334;28;20102;-42
2023/07/16 07:24:57;;;;;;;13.63;4.85;;;20.80;95.40;;;;;;5031528;28;20429;-42
2023/07/16 07:27:24;;;;;;;11.63;4.93;;;20.80;95.20;;;;;;5032210;28;20073;-42
2023/07/16 07:29:52;;;;;;;9.05;4.40;;;21.00;95.10;;;;;;5032100;28;20061;-42
2023/07/16 07:32:20;;;;;;;15.10;5.47;;;21.20;95.10;;;;;;5033480;28;20092;-41
2023/07/16 07:34:46;;;;;;;11.65;4.65;;;21.30;94.80;;;;;;5032299;28;20053;-42
2023/07/16 07:37:14;;;;;;;12.13;4.30;;;21.40;94.60;;;;;;5029686;28;20068;-42
2023/07/16 07:39:40;;;;;;;13.88;5.10;;;21.50;94.40;;;;;;5021006;28;20083;-43
2023/07/16 07:42:09;;;;;;;14.00;5.43;;;21.60;94.00;;;;;;5030742;28;20038;-43
2023/07/16 07:44:35;;;;;;;18.20;5.43;;;21.60;93.90;;;;;;5033499;28;20489;-43
2023/07/16 07:47:04;;;;;;;12.23;4.78;;;21.60;93.60;;;;;;5031713;28;20103;-43
2023/07/16 07:49:31;;;;;;;12.20;4.38;;;21.60;93.70;;;;;;5033752;28;20519;-43
2023/07/16 07:51:58;;;;;;;13.38;4.80;;;21.60;93.70;;;;;;5031978;28;20401;-43
2023/07/16 07:54:25;;;;;;;11.43;5.25;;;21.60;93.40;;;;;;5029182;28;20123;-43
2023/07/16 07:56:51;;;;;;;16.42;5.38;;;21.60;93.20;;;;;;5030736;28;20087;-43
2023/07/16 07:59:18;;;;;;;13.57;5.25;;;21.70;92.90;;;;;;5033945;28;20469;-42
2023/07/16 08:01:45;;;;;;;12.10;4.82;;;21.60;92.90;;;;;;5033141;28;20081;-43
2023/07/16 08:04:13;;;;;;;10.52;5.53;;;21.50;92.80;;;;;;5029899;28;20053;-43
2023/07/16 08:06:40;;;;;;;10.38;4.88;;;21.50;92.70;;;;;;5030935;28;20060;-43
2023/07/16 08:09:07;;;;;;;13.43;5.07;;;21.40;92.90;;;;;;5029684;28;20061;-42
2023/07/16 08:11:34;;;;;;;12.32;4.80;;;21.40;93.20;;;;;;5029514;28;20046;-42
2023/07/16 08:14:01;;;;;;;9.95;4.20;;;21.40;93.00;;;;;;5038669;28;20049;-42
2023/07/16 08:16:28;;;;;;;12.05;5.43;;;21.50;92.80;;;;;;5032238;28;20058;-42
2023/07/16 08:18:55;;;;;;;12.25;4.90;;;21.50;92.90;;;;;;5032621;28;20120;-42
2023/07/16 08:21:23;;;;;;;11.38;5.30;;;21.60;93.20;;;;;;5030267;28;20041;-42
2023/07/16 08:23:50;;;;;;;12.30;4.75;;;21.70;93.10;;;;;;5027246;28;20374;-42
2023/07/16 08:26:17;;;;;;;12.13;5.13;;;21.70;92.80;;;;;;5036285;28;20061;-42
2023/07/16 08:28:44;;;;;;;16.58;5.32;;;21.80;92.60;;;;;;5031078;28;20056;-42
2023/07/16 08:31:11;;;;;;;12.63;4.75;;;21.80;92.80;;;;;;5029313;28;20056;-41
2023/07/16 08:33:38;;;;;;;13.95;5.20;;;21.80;92.70;;;;;;5030774;28;20053;-42
2023/07/16 08:36:05;;;;;;;14.15;5.10;;;21.80;92.40;;;;;;5031589;28;20053;-41
2023/07/16 08:38:33;;;;;;;11.43;5.25;;;21.80;92.70;;;;;;5028515;28;20099;-43
2023/07/16 08:41:01;;;;;;;12.02;5.00;;;21.80;92.60;;;;;;5047232;28;20045;-42
2023/07/16 08:43:28;;;;;;;12.57;5.43;;;21.80;92.70;;;;;;5052363;28;20053;-42
2023/07/16 08:45:54;;;;;;;12.70;5.70;;;21.80;92.60;;;;;;5047455;28;20103;-42
2023/07/16 08:48:22;;;;;;;12.52;5.45;;;21.80;92.50;;;;;;5031714;28;20045;-42
2023/07/16 08:50:49;;;;;;;16.60;5.45;;;21.80;92.50;;;;;;5030266;28;20059;-43
2023/07/16 08:53:16;;;;;;;12.43;5.68;;;21.90;92.80;;;;;;5030264;28;20502;-42
2023/07/16 08:55:44;;;;;;;11.23;4.85;;;21.90;92.20;;;;;;5030683;28;20054;-42
2023/07/16 08:58:12;;;;;;;16.42;5.00;;;22.10;92.20;;;;;;5031272;28;20048;-42
2023/07/16 09:00:39;;;;;;;12.23;5.68;;;22.20;92.40;;;;;;5026129;28;20065;-42
2023/07/16 09:03:06;;;;;;;10.55;4.80;;;22.40;92.10;;;;;;5020656;28;20050;-42
2023/07/16 09:05:32;;;;;;;14.18;5.72;;;22.50;91.70;;;;;;5024846;28;20080;-42
2023/07/16 09:07:59;;;;;;;11.23;4.70;;;22.70;91.30;;;;;;5030752;28;20371;-42
2023/07/16 09:10:26;;;;;;;10.90;4.57;;;22.70;91.00;;;;;;5020581;28;20041;-43
2023/07/16 09:12:54;;;;;;;18.88;5.00;;;22.90;91.10;;;;;;5029906;28;20053;-42
2023/07/16 09:15:21;;;;;;;10.98;4.75;;;22.90;90.80;;;;;;5028656;28;20081;-42
2023/07/16 09:17:50;;;;;;;9.13;4.13;;;22.90;90.70;;;;;;5048339;28;20445;-42
2023/07/16 09:20:17;;;;;;;14.07;4.72;;;22.80;90.60;;;;;;5046719;28;20053;-42
2023/07/16 09:22:44;;;;;;;8.57;4.63;;;22.70;90.60;;;;;;5050148;28;20444;-43
2023/07/16 09:25:11;;;;;;;10.55;4.53;;;22.70;90.80;;;;;;5048500;28;20060;-43
2023/07/16 09:27:38;;;;;;;10.27;4.45;;;22.70;91.10;;;;;;5042498;28;20378;-43
2023/07/16 09:30:07;;;;;;;14.60;4.93;;;22.70;90.70;;;;;;5046216;28;20408;-41
2023/07/16 09:32:35;;;;;;;10.65;4.40;;;22.60;90.90;;;;;;5049314;28;20060;-42
2023/07/16 09:35:02;;;;;;;9.23;4.30;;;22.60;91.00;;;;;;5066137;28;20060;-43
2023/07/16 09:37:28;;;;;;;9.98;4.18;;;22.70;90.80;;;;;;5058897;28;20071;-42
2023/07/16 09:39:55;;;;;;;11.20;4.72;;;22.80;90.50;;;;;;5054574;28;20135;-43
2023/07/16 09:42:23;;;;;;;9.63;4.40;;;22.80;90.40;;;;;;5053474;28;20095;-43
2023/07/16 09:44:49;;;;;;;11.95;4.65;;;22.80;90.10;;;;;;5051800;28;20123;-42
2023/07/16 09:47:18;;;;;;;12.63;4.70;;;22.90;89.90;;;;;;5049499;28;20076;-43
2023/07/16 09:49:45;;;;;;;13.27;4.70;;;22.90;90.00;;;;;;5048880;28;20041;-42
2023/07/16 09:52:13;;;;;;;9.52;4.72;;;22.90;90.00;;;;;;5051256;28;20167;-42
2023/07/16 09:54:40;;;;;;;10.43;4.63;;;23.10;89.50;;;;;;5051799;28;20049;-42
2023/07/16 09:57:07;;;;;;;10.93;4.80;;;23.20;88.90;;;;;;5048988;28;20093;-42
2023/07/16 09:59:34;;;;;;;15.30;5.00;;;23.30;88.90;;;;;;5051779;28;20049;-43
2023/07/16 10:02:01;;;;;;;10.82;4.97;;;23.40;88.30;;;;;;5049273;28;20049;-43
2023/07/16 10:04:38;;;;;;;9.88;4.43;;;23.30;87.80;;;;;;5048998;28;20061;-42
2023/07/16 10:07:05;;;;;;;11.25;5.07;;;23.10;87.20;;;;;;5049843;28;20057;-43
2023/07/16 10:09:35;;;;;;;8.85;4.38;;;22.90;87.90;;;;;;5047852;28;20431;-43
2023/07/16 10:12:15;;;;;;;9.02;4.60;;;22.80;88.30;;;;;;5050644;28;20519;-41
2023/07/16 10:14:43;;;;;;;9.93;4.50;;;22.80;87.40;;;;;;5049184;28;20477;-43
2023/07/16 10:17:14;;;;;;;9.05;4.55;;;22.70;88.60;;;;;;5049094;28;20051;-42
2023/07/16 10:19:49;;;;;;;10.90;4.72;;;22.70;88.50;;;;;;5050998;28;20056;-43
2023/07/16 10:26:00;;;;;;;8.88;4.70;;;22.70;89.50;;;;;;5052962;28;20090;-42
2023/07/16 10:28:27;;;;;;;16.95;5.05;;;22.70;90.00;;;;;;5050629;28;20107;-42
2023/07/16 10:30:54;;;;;;;11.93;5.50;;;22.70;89.80;;;;;;5050917;28;20378;-41
2023/07/16 10:33:21;;;;;;;11.43;5.32;;;22.60;90.00;;;;;;5049067;28;20178;-42
2023/07/16 10:35:49;;;;;;;11.88;5.30;;;22.60;90.10;;;;;;5050034;28;20052;-42
2023/07/16 10:38:16;;;;;;;11.48;5.43;;;22.50;90.20;;;;;;5041727;28;20052;-44
2023/07/16 10:40:43;;;;;;;13.60;5.30;;;22.50;90.50;;;;;;5045644;28;20095;-43
2023/07/16 10:43:10;;;;;;;9.80;4.97;;;22.50;90.10;;;;;;5048879;28;20045;-42
2023/07/16 10:45:37;;;;;;;9.00;4.65;;;22.50;89.70;;;;;;5054392;28;20099;-43
2023/07/16 10:48:04;;;;;;;9.77;4.65;;;22.60;90.00;;;;;;5061306;28;20456;-42
2023/07/16 10:50:33;;;;;;;9.68;4.70;;;22.70;89.70;;;;;;5066018;28;20052;-43
2023/07/16 10:53:01;;;;;;;14.07;5.15;;;22.80;89.80;;;;;;5060726;28;20048;-43
2023/07/16 10:55:29;;;;;;;7.70;4.20;;;22.80;89.30;;;;;;5058564;28;20451;-43
2023/07/16 10:57:56;;;;;;;10.45;4.00;;;22.80;88.50;;;;;;5049845;28;20052;-42
2023/07/16 11:00:22;;;;;;;10.38;4.97;;;22.90;88.60;;;;;;5051903;28;20045;-42
2023/07/16 11:02:50;;;;;;;9.55;4.28;;;22.90;88.40;;;;;;5054661;28;20052;-43
2023/07/16 11:05:18;;;;;;;9.57;4.60;;;23.00;88.80;;;;;;5047443;28;20076;-41
2023/07/16 11:07:45;;;;;;;8.88;4.45;;;23.20;88.30;;;;;;5055642;28;20135;-42
2023/07/16 11:10:13;;;;;;;11.90;4.60;;;23.30;88.70;;;;;;5048403;28;20542;-43
2023/07/16 11:12:40;;;;;;;10.18;4.53;;;23.40;88.70;;;;;;5055764;28;20045;-43
2023/07/16 11:15:08;;;;;;;10.02;4.80;;;23.50;87.90;;;;;;5057568;28;20522;-43
2023/07/16 11:17:35;;;;;;;7.28;4.50;;;23.40;87.70;;;;;;5050130;28;20408;-42
2023/07/16 11:20:02;;;;;;;9.43;4.63;;;23.40;87.60;;;;;;5049648;28;20063;-42
2023/07/16 11:22:29;;;;;;;14.45;4.90;;;23.40;87.60;;;;;;5051145;28;20052;-42
2023/07/16 11:24:56;;;;;;;9.80;4.10;;;23.30;87.60;;;;;;5058372;28;20048;-43
2023/07/16 11:27:26;;;;;;;9.50;4.20;;;23.30;86.90;;;;;;5049018;28;20060;-42
2023/07/16 11:29:53;;;;;;;8.52;4.30;;;23.20;87.60;;;;;;5052122;28;20057;-42
2023/07/16 11:32:30;;;;;;;9.90;4.40;;;23.10;87.50;;;;;;5053197;28;20586;-42
2023/07/16 11:34:57;;;;;;;11.43;4.55;;;23.00;87.10;;;;;;5051752;28;20045;-42
2023/07/16 11:37:25;;;;;;;10.02;4.90;;;22.80;87.30;;;;;;5054494;28;20056;-43
2023/07/16 11:39:55;;;;;;;10.18;4.57;;;22.70;87.60;;;;;;5051725;28;20060;-42
2023/07/16 11:42:28;;;;;;;10.25;4.32;;;22.60;88.10;;;;;;5048814;28;20443;-43
2023/07/16 11:44:55;;;;;;;11.20;4.68;;;22.60;88.30;;;;;;5046761;28;20045;-43
2023/07/16 11:47:22;;;;;;;11.18;4.82;;;22.60;88.30;;;;;;5050946;28;20052;-42
2023/07/16 11:49:49;;;;;;;13.25;5.03;;;22.50;88.50;;;;;;5048823;28;20076;-43
2023/07/16 11:52:16;;;;;;;12.60;4.90;;;22.50;88.50;;;;;;5049234;28;20045;-43
2023/07/16 11:54:43;;;;;;;11.15;5.32;;;22.50;88.80;;;;;;5050454;28;20053;-43
2023/07/16 11:57:10;;;;;;;11.35;4.57;;;22.40;89.00;;;;;;5050417;28;20049;-43
2023/07/16 11:59:38;;;;;;;11.77;4.88;;;22.40;89.00;;;;;;5052989;28;20041;-43
2023/07/16 12:02:05;;;;;;;11.15;4.97;;;22.50;89.50;;;;;;5050782;28;20488;-43
2023/07/16 12:04:32;;;;;;;9.32;4.90;;;22.60;89.70;;;;;;5050833;28;20045;-43
2023/07/16 12:06:59;;;;;;;10.70;4.75;;;22.90;88.90;;;;;;5048874;28;20053;-42
2023/07/16 12:09:25;;;;;;;14.05;4.88;;;23.10;88.90;;;;;;5052170;28;20053;-43
2023/07/16 12:11:52;;;;;;;7.55;4.68;;;23.30;88.40;;;;;;5048343;28;20061;-42
2023/07/16 12:14:19;;;;;;;9.15;4.38;;;23.40;87.80;;;;;;5049644;28;20053;-42
2023/07/16 12:16:47;;;;;;;9.60;4.43;;;23.40;87.70;;;;;;5045516;28;20060;-42
2023/07/16 12:19:14;;;;;;;9.48;4.90;;;23.30;87.60;;;;;;5031118;28;20068;-43
2023/07/16 12:21:41;;;;;;;8.43;4.38;;;23.20;87.70;;;;;;5042104;28;20045;-43
2023/07/16 12:24:08;;;;;;;12.02;4.63;;;23.10;87.80;;;;;;5047104;28;20049;-43
2023/07/16 12:26:35;;;;;;;8.77;4.00;;;23.20;88.00;;;;;;5050096;28;20055;-42
2023/07/16 12:29:03;;;;;;;11.63;4.82;;;23.20;87.80;;;;;;5051859;28;20052;-42
2023/07/16 12:31:31;;;;;;;10.20;4.65;;;23.20;88.20;;;;;;5048596;28;20045;-42
2023/07/16 12:33:59;;;;;;;12.15;4.72;;;23.00;87.90;;;;;;5049087;28;20128;-42
2023/07/16 12:36:26;;;;;;;10.68;4.93;;;22.80;88.60;;;;;;5047733;28;20496;-42
2023/07/16 12:38:53;;;;;;;11.88;5.30;;;22.70;89.80;;;;;;5046556;28;20505;-42
2023/07/16 12:41:19;;;;;;;9.82;5.20;;;22.60;90.30;;;;;;5049708;28;20167;-42
2023/07/16 12:43:47;;;;;;;13.75;5.53;;;22.50;90.40;;;;;;5045445;28;20053;-42